Time;durP1;ratioP1;P1;durP2;ratioP2;P2;SDS_P1;SDS_P2;PMS_P1;PMS_P2;Temp;Humidity;BMP_temperature;BMP_pressure;BME280_temperature;BME280_humidity;BME280_pressure;Samples;Min_cycle;Max_cycle;Signal;HPM_P1;HPM_P2
2022/05/21 00:00:28;;;;;;;2.70;2.43;;;22.70;51.10;;;;;;5093718;28;20484;-89
2022/05/21 00:02:55;;;;;;;2.27;2.00;;;22.80;51.00;;;;;;5079266;28;20509;-86
2022/05/21 00:05:24;;;;;;;5.20;2.50;;;23.00;50.60;;;;;;5092769;28;20475;-85
2022/05/21 00:07:53;;;;;;;2.33;2.20;;;23.10;50.80;;;;;;5093794;28;20989;-86
2022/05/21 00:10:22;;;;;;;2.13;2.03;;;23.20;50.30;;;;;;5077119;28;20423;-86
2022/05/21 00:12:50;;;;;;;2.60;2.40;;;23.30;49.80;;;;;;5063551;28;20435;-86
2022/05/21 00:15:19;;;;;;;2.67;2.10;;;23.10;49.80;;;;;;5078940;28;20498;-88
2022/05/21 00:17:48;;;;;;;2.43;2.23;;;23.20;50.00;;;;;;5063488;28;20538;-87
2022/05/21 00:22:58;;;;;;;2.43;2.23;;;22.90;49.30;;;;;;5080364;28;20435;-86
2022/05/21 00:25:26;;;;;;;2.80;2.60;;;22.70;49.80;;;;;;5080953;28;20478;-86
2022/05/21 00:27:53;;;;;;;5.90;2.30;;;22.50;49.40;;;;;;5081686;28;20480;-85
2022/05/21 00:30:20;;;;;;;4.40;2.87;;;22.40;49.90;;;;;;5093329;28;20470;-86
2022/05/21 00:32:46;;;;;;;2.43;2.23;;;22.10;48.90;;;;;;5074541;28;20787;-85
2022/05/21 00:35:14;;;;;;;3.10;2.07;;;22.00;49.30;;;;;;5093925;28;20465;-85
2022/05/21 00:37:41;;;;;;;2.70;2.50;;;21.90;49.40;;;;;;5069563;28;20452;-86
2022/05/21 00:40:10;;;;;;;3.43;2.30;;;21.80;49.60;;;;;;5079537;28;20528;-85
2022/05/21 00:42:42;;;;;;;5.20;2.90;;;21.90;49.80;;;;;;5070865;28;20462;-86
2022/05/21 00:45:10;;;;;;;2.93;2.73;;;22.00;49.80;;;;;;5059319;28;20550;-89
2022/05/21 00:47:37;;;;;;;3.83;3.17;;;22.10;49.70;;;;;;5086731;28;20463;-86
2022/05/21 00:50:06;;;;;;;2.83;2.40;;;22.00;49.10;;;;;;5074060;28;20537;-87
2022/05/21 00:52:35;;;;;;;5.07;2.97;;;21.80;49.30;;;;;;5078272;28;20447;-85
2022/05/21 00:55:07;;;;;;;2.93;2.73;;;21.80;49.60;;;;;;5062353;28;20515;-87
2022/05/21 00:57:38;;;;;;;5.03;2.80;;;21.80;49.70;;;;;;5060385;28;20440;-87
2022/05/21 01:00:10;;;;;;;3.10;2.90;;;21.70;49.60;;;;;;5092575;28;20447;-87
2022/05/21 01:02:39;;;;;;;3.30;3.10;;;21.60;49.70;;;;;;5094284;28;20436;-87
2022/05/21 01:05:10;;;;;;;5.50;2.90;;;21.40;50.30;;;;;;5085602;28;20463;-89
2022/05/21 01:07:37;;;;;;;2.70;2.50;;;21.30;50.00;;;;;;5060547;28;20505;-86
2022/05/21 01:10:06;;;;;;;3.53;2.80;;;21.30;49.60;;;;;;5059946;28;21031;-86
2022/05/21 01:12:37;;;;;;;4.80;3.47;;;21.10;50.00;;;;;;5097282;28;20489;-86
2022/05/21 01:15:07;;;;;;;3.77;3.00;;;21.10;49.70;;;;;;5076556;28;20463;-86
2022/05/21 01:17:34;;;;;;;4.80;2.60;;;21.20;50.00;;;;;;5070490;28;21137;-85
2022/05/21 01:20:06;;;;;;;2.70;2.50;;;21.20;50.20;;;;;;5093050;28;20493;-86
2022/05/21 01:22:41;;;;;;;2.13;1.93;;;21.30;50.70;;;;;;5078760;28;20456;-86
2022/05/21 01:25:10;;;;;;;2.23;2.03;;;21.00;49.80;;;;;;5075301;28;20462;-89
2022/05/21 01:27:37;;;;;;;2.27;2.07;;;20.80;50.00;;;;;;5095262;28;20463;-85
2022/05/21 01:30:07;;;;;;;1.80;1.70;;;20.80;50.10;;;;;;5091746;28;21131;-88
2022/05/21 01:32:34;;;;;;;3.43;2.13;;;20.80;50.00;;;;;;5094659;28;20444;-85
2022/05/21 01:35:01;;;;;;;2.27;2.03;;;20.60;50.00;;;;;;5065601;28;20468;-86
2022/05/21 01:37:28;;;;;;;2.90;2.70;;;20.60;50.30;;;;;;5075330;28;20443;-85
2022/05/21 01:39:57;;;;;;;3.40;2.13;;;20.20;50.70;;;;;;5084906;28;20434;-88
2022/05/21 01:42:24;;;;;;;2.90;1.77;;;20.00;51.10;;;;;;5068013;28;20447;-85
2022/05/21 01:44:52;;;;;;;2.27;2.07;;;20.00;50.50;;;;;;5081109;28;20461;-86
2022/05/21 01:47:20;;;;;;;2.53;2.20;;;20.10;50.00;;;;;;5096279;28;20450;-86
2022/05/21 01:49:47;;;;;;;2.40;2.20;;;19.90;49.10;;;;;;5078365;28;20454;-85
2022/05/21 01:52:14;;;;;;;4.73;2.43;;;19.90;49.50;;;;;;5069028;28;20480;-86
2022/05/21 01:54:41;;;;;;;2.40;1.97;;;19.90;49.20;;;;;;5062289;28;20464;-86
2022/05/21 01:57:10;;;;;;;6.83;2.50;;;20.10;50.10;;;;;;5075589;28;20451;-89
2022/05/21 01:59:37;;;;;;;2.17;1.97;;;19.90;49.50;;;;;;5082584;28;20450;-86
2022/05/21 02:02:05;;;;;;;2.33;2.17;;;19.90;49.10;;;;;;5058248;28;20479;-86
2022/05/21 02:04:32;;;;;;;1.80;1.70;;;19.80;49.30;;;;;;5079088;28;20535;-88
2022/05/21 02:06:59;;;;;;;5.53;1.70;;;20.10;49.20;;;;;;5078053;28;20467;-86
2022/05/21 02:09:26;;;;;;;2.13;1.80;;;20.30;49.40;;;;;;5096091;28;20482;-89
2022/05/21 02:11:53;;;;;;;3.10;1.80;;;20.50;48.50;;;;;;5081874;28;20486;-88
2022/05/21 02:14:21;;;;;;;2.00;1.63;;;20.70;48.60;;;;;;5094656;28;20464;-86
2022/05/21 02:16:48;;;;;;;1.67;1.57;;;20.80;48.30;;;;;;5094787;28;20528;-87
2022/05/21 02:19:15;;;;;;;2.53;1.80;;;20.80;48.10;;;;;;5061182;28;20443;-86
2022/05/21 02:21:42;;;;;;;2.10;1.73;;;20.90;48.20;;;;;;5063559;28;20459;-86
2022/05/21 02:24:10;;;;;;;3.47;2.20;;;21.00;48.40;;;;;;5095324;28;20513;-86
2022/05/21 02:26:38;;;;;;;1.90;1.80;;;21.00;47.90;;;;;;5075489;28;20450;-87
2022/05/21 02:29:05;;;;;;;1.93;1.80;;;20.60;48.30;;;;;;5065794;28;20428;-88
2022/05/21 02:31:34;;;;;;;2.07;1.97;;;20.60;49.50;;;;;;5078787;28;20438;-86
2022/05/21 02:34:01;;;;;;;4.37;2.17;;;20.70;49.10;;;;;;5048392;28;20459;-90
2022/05/21 02:39:28;;;;;;;1.97;1.80;;;20.40;49.00;;;;;;5078324;28;20450;-87
2022/05/21 02:41:56;;;;;;;2.23;1.50;;;20.20;49.10;;;;;;5078634;28;20439;-86
2022/05/21 02:44:23;;;;;;;1.90;1.80;;;20.30;49.30;;;;;;5067358;28;20477;-86
2022/05/21 02:46:52;;;;;;;1.77;1.67;;;20.50;49.30;;;;;;5068009;28;20485;-87
2022/05/21 02:49:19;;;;;;;1.60;1.40;;;20.40;49.20;;;;;;5069289;28;20884;-88
2022/05/21 02:51:47;;;;;;;2.70;1.80;;;20.30;49.10;;;;;;5070052;28;20945;-86
2022/05/21 02:54:15;;;;;;;1.93;1.77;;;20.50;48.80;;;;;;5093910;28;20494;-85
2022/05/21 02:56:45;;;;;;;2.50;1.63;;;20.30;48.30;;;;;;5060724;28;20571;-90
2022/05/21 02:59:12;;;;;;;1.57;1.47;;;20.50;48.70;;;;;;5094077;28;20444;-89
2022/05/21 03:01:40;;;;;;;1.70;1.60;;;20.50;48.50;;;;;;5102321;28;20455;-86
2022/05/21 03:04:08;;;;;;;1.80;1.70;;;20.60;48.80;;;;;;5098371;28;21179;-87
2022/05/21 03:06:36;;;;;;;1.80;1.70;;;20.50;48.20;;;;;;5090625;28;20810;-87
2022/05/21 03:11:49;;;;;;;1.97;1.60;;;20.40;47.90;;;;;;5091607;28;20434;-89
2022/05/21 03:14:16;;;;;;;1.90;1.70;;;20.30;47.70;;;;;;5067231;28;20542;-89
2022/05/21 03:16:43;;;;;;;1.70;1.60;;;20.30;48.10;;;;;;5102338;28;20462;-86
2022/05/21 03:19:12;;;;;;;1.90;1.50;;;20.10;48.40;;;;;;5078548;28;20739;-89
2022/05/21 03:21:39;;;;;;;1.97;1.50;;;20.10;48.60;;;;;;5100383;28;20470;-86
2022/05/21 03:24:08;;;;;;;1.90;1.70;;;20.10;48.80;;;;;;5079371;28;20470;-85
2022/05/21 03:26:35;;;;;;;2.30;1.90;;;19.80;48.20;;;;;;5089833;28;20461;-86
2022/05/21 03:29:02;;;;;;;2.73;1.90;;;19.80;49.30;;;;;;5081283;28;20540;-86
2022/05/21 03:31:29;;;;;;;4.13;1.80;;;19.70;49.00;;;;;;5096846;28;20451;-86
2022/05/21 03:33:56;;;;;;;1.63;1.53;;;19.80;48.70;;;;;;5071713;28;20468;-89
2022/05/21 03:36:24;;;;;;;2.10;1.90;;;19.80;48.10;;;;;;5089048;28;20467;-86
2022/05/21 03:38:51;;;;;;;1.63;1.53;;;19.50;47.70;;;;;;5056781;28;20438;-86
2022/05/21 03:41:20;;;;;;;3.30;1.70;;;19.50;48.00;;;;;;5074139;28;20454;-86
2022/05/21 03:43:46;;;;;;;5.90;2.20;;;19.40;47.70;;;;;;5098970;28;20472;-86
2022/05/21 03:46:14;;;;;;;1.90;1.80;;;19.40;48.50;;;;;;5100396;28;20480;-87
2022/05/21 03:48:41;;;;;;;1.57;1.47;;;19.30;48.30;;;;;;5067889;28;20485;-87
2022/05/21 03:51:07;;;;;;;6.00;2.30;;;19.10;48.60;;;;;;5085790;28;20490;-88
2022/05/21 03:53:36;;;;;;;4.33;2.10;;;19.10;48.00;;;;;;5095511;28;20450;-87
2022/05/21 03:56:03;;;;;;;2.10;1.90;;;19.20;47.70;;;;;;5084426;28;21152;-87
2022/05/21 03:58:31;;;;;;;2.23;2.03;;;19.30;47.40;;;;;;5087386;28;20451;-87
2022/05/21 04:00:58;;;;;;;2.80;2.17;;;18.80;47.60;;;;;;5078210;28;20448;-88
2022/05/21 04:03:25;;;;;;;2.70;1.70;;;18.90;48.40;;;;;;5056584;28;21203;-86
2022/05/21 04:05:55;;;;;;;3.00;1.93;;;19.00;48.10;;;;;;5062710;28;20484;-87
2022/05/21 04:08:22;;;;;;;3.20;2.00;;;19.20;48.20;;;;;;5070698;28;20467;-85
2022/05/21 04:10:52;;;;;;;1.97;1.83;;;19.10;48.00;;;;;;5068412;28;20875;-91
2022/05/21 04:13:19;;;;;;;3.00;2.07;;;19.10;47.80;;;;;;5104317;28;20447;-88
2022/05/21 04:15:46;;;;;;;1.70;1.60;;;19.10;48.00;;;;;;5067496;28;20962;-86
2022/05/21 04:18:13;;;;;;;2.00;1.80;;;19.10;47.80;;;;;;5087769;28;20962;-86
2022/05/21 04:20:42;;;;;;;1.50;1.40;;;19.40;48.10;;;;;;5060909;28;20547;-86
2022/05/21 04:23:09;;;;;;;1.50;1.40;;;19.70;48.20;;;;;;5065826;28;20513;-89
2022/05/21 04:25:37;;;;;;;3.63;1.67;;;19.80;48.00;;;;;;5084815;28;20506;-87
2022/05/21 04:28:06;;;;;;;3.53;1.67;;;19.90;48.10;;;;;;5085798;28;20469;-90
2022/05/21 04:30:35;;;;;;;2.17;2.00;;;20.00;47.90;;;;;;5063346;28;20454;-86
2022/05/21 04:33:03;;;;;;;3.40;2.63;;;19.70;47.90;;;;;;5059736;28;20461;-86
2022/05/21 04:36:17;;;;;;;2.77;2.47;;;19.50;48.50;;;;;;5079884;28;20471;-87
2022/05/21 04:38:18;;;;;;;3.10;2.20;;;19.10;48.40;;;;;;5100816;28;20549;-87
2022/05/21 04:40:45;;;;;;;3.03;2.43;;;19.10;49.20;;;;;;5067029;28;20435;-87
2022/05/21 04:43:13;;;;;;;2.57;2.20;;;19.10;49.50;;;;;;5080154;28;20439;-88
2022/05/21 04:45:40;;;;;;;6.00;2.70;;;19.30;49.90;;;;;;5099246;28;20487;-87
2022/05/21 04:48:09;;;;;;;3.03;2.40;;;19.30;49.40;;;;;;5083272;28;20524;-88
2022/05/21 04:50:38;;;;;;;2.80;2.60;;;19.40;49.60;;;;;;5087531;28;20450;-86
2022/05/21 04:53:06;;;;;;;3.17;2.73;;;19.10;49.60;;;;;;5098418;28;20535;-90
2022/05/21 04:55:33;;;;;;;3.70;3.13;;;19.00;49.60;;;;;;5079720;28;20474;-86
2022/05/21 04:58:00;;;;;;;3.70;2.97;;;18.80;50.50;;;;;;5053479;28;20448;-88
2022/05/21 05:00:28;;;;;;;3.20;2.80;;;18.90;50.50;;;;;;5099884;28;20450;-87
2022/05/21 05:02:56;;;;;;;8.53;3.10;;;19.00;50.70;;;;;;5078560;28;20470;-91
2022/05/21 05:05:23;;;;;;;6.87;2.80;;;19.20;50.70;;;;;;5059211;28;20478;-87
2022/05/21 05:07:50;;;;;;;3.07;2.77;;;19.30;50.90;;;;;;5080850;28;20490;-87
2022/05/21 05:10:17;;;;;;;4.60;2.20;;;19.30;50.50;;;;;;5086844;28;20462;-88
2022/05/21 05:12:44;;;;;;;3.23;2.90;;;19.40;50.40;;;;;;5096618;28;20455;-86
2022/05/21 05:15:11;;;;;;;2.70;2.47;;;19.30;50.60;;;;;;5086604;28;20481;-87
2022/05/21 05:17:40;;;;;;;4.40;3.53;;;19.40;51.00;;;;;;5070170;28;20443;-86
2022/05/21 05:20:08;;;;;;;3.33;3.00;;;19.50;51.20;;;;;;5078280;28;20806;-86
2022/05/21 05:22:35;;;;;;;4.70;3.57;;;19.30;50.30;;;;;;5095724;28;20491;-87
2022/05/21 05:25:04;;;;;;;5.83;3.20;;;19.30;50.50;;;;;;5091194;28;20479;-86
2022/05/21 05:27:31;;;;;;;6.90;3.00;;;19.20;50.60;;;;;;5078081;28;21141;-87
2022/05/21 05:29:58;;;;;;;7.03;3.27;;;19.10;50.80;;;;;;5081611;28;20447;-88
2022/05/21 05:32:25;;;;;;;6.20;3.30;;;19.20;51.80;;;;;;5077527;28;20455;-86
2022/05/21 05:34:53;;;;;;;5.83;3.37;;;19.20;50.90;;;;;;5059082;28;20985;-87
2022/05/21 05:37:20;;;;;;;5.03;3.83;;;18.80;50.30;;;;;;5069355;28;20449;-89
2022/05/21 05:39:47;;;;;;;4.07;3.20;;;18.80;50.60;;;;;;5095343;28;20483;-86
2022/05/21 05:42:14;;;;;;;4.57;3.47;;;18.90;51.00;;;;;;5096966;28;20791;-87
2022/05/21 05:44:41;;;;;;;4.50;3.03;;;19.20;51.50;;;;;;5075060;28;20466;-87
2022/05/21 05:47:08;;;;;;;5.70;3.50;;;19.40;50.40;;;;;;5049284;28;20996;-90
2022/05/21 05:49:35;;;;;;;3.03;2.70;;;19.50;50.00;;;;;;5095734;28;20498;-88
2022/05/21 05:52:04;;;;;;;4.10;3.00;;;19.60;49.80;;;;;;5099462;28;20533;-88
2022/05/21 05:54:33;;;;;;;4.00;3.30;;;19.60;49.40;;;;;;5081492;28;21237;-87
2022/05/21 05:57:00;;;;;;;4.43;3.10;;;19.70;50.30;;;;;;5066644;28;20498;-88
2022/05/21 06:04:52;;;;;;;3.40;2.47;;;19.90;49.30;;;;;;5023427;28;20462;-88
2022/05/21 06:07:20;;;;;;;4.47;3.37;;;20.10;47.90;;;;;;5049827;28;20450;-87
2022/05/21 06:09:47;;;;;;;2.87;2.67;;;19.90;46.90;;;;;;5080425;28;20462;-87
2022/05/21 06:12:14;;;;;;;3.20;2.80;;;19.90;47.40;;;;;;5076624;28;20475;-88
2022/05/21 06:14:42;;;;;;;4.40;2.40;;;20.00;48.10;;;;;;5077492;28;20471;-88
2022/05/21 06:17:10;;;;;;;2.90;2.47;;;20.10;48.40;;;;;;5078667;28;21300;-88
2022/05/21 06:19:37;;;;;;;2.37;2.17;;;20.40;48.10;;;;;;5062745;28;20436;-88
2022/05/21 06:22:04;;;;;;;4.33;2.40;;;20.50;47.00;;;;;;5093488;28;20458;-88
2022/05/21 06:24:37;;;;;;;3.20;2.10;;;20.20;45.70;;;;;;5071605;28;20486;-86
2022/05/21 06:27:04;;;;;;;1.90;1.80;;;19.90;45.90;;;;;;5067067;28;20448;-86
2022/05/21 06:29:31;;;;;;;3.87;1.80;;;19.90;46.80;;;;;;5046266;28;20468;-88
2022/05/21 06:31:58;;;;;;;2.23;2.03;;;19.70;47.80;;;;;;5072189;28;20447;-87
2022/05/21 06:34:25;;;;;;;4.77;2.77;;;19.80;47.50;;;;;;5065047;28;20561;-87
2022/05/21 06:36:52;;;;;;;2.13;1.93;;;20.00;47.10;;;;;;5047954;28;20455;-87
2022/05/21 06:39:19;;;;;;;1.60;1.50;;;20.20;46.30;;;;;;5059966;28;20446;-88
2022/05/21 06:41:48;;;;;;;3.30;2.40;;;20.30;46.50;;;;;;5093473;28;21070;-87
2022/05/21 06:44:15;;;;;;;1.70;1.60;;;20.40;46.00;;;;;;5066524;28;20476;-86
2022/05/21 06:46:41;;;;;;;2.20;1.90;;;20.50;46.40;;;;;;5055769;28;20458;-87
2022/05/21 06:49:09;;;;;;;3.90;1.43;;;20.60;45.80;;;;;;5048432;28;20459;-89
2022/05/21 06:51:36;;;;;;;2.90;1.80;;;20.70;45.20;;;;;;5054672;28;21136;-88
2022/05/21 06:54:03;;;;;;;2.40;1.63;;;20.70;44.60;;;;;;5081970;28;20467;-87
2022/05/21 06:56:30;;;;;;;1.60;1.50;;;20.80;44.90;;;;;;5082733;28;20458;-86
2022/05/21 06:58:58;;;;;;;2.33;2.10;;;20.80;44.50;;;;;;5080863;28;20559;-88
2022/05/21 07:01:25;;;;;;;3.47;1.60;;;20.50;44.90;;;;;;5077809;28;20458;-87
2022/05/21 07:03:52;;;;;;;6.33;1.90;;;20.70;44.70;;;;;;5076726;28;20478;-89
2022/05/21 07:09:04;;;;;;;2.80;1.40;;;21.00;45.00;;;;;;5093981;28;20470;-89
2022/05/21 07:11:32;;;;;;;1.73;1.63;;;21.40;44.30;;;;;;5062782;28;20462;-87
2022/05/21 07:14:00;;;;;;;1.80;1.70;;;21.50;43.70;;;;;;5073842;28;21006;-88
2022/05/21 07:16:27;;;;;;;2.37;1.57;;;21.50;43.60;;;;;;5090873;28;20463;-87
2022/05/21 07:18:55;;;;;;;2.00;1.73;;;21.50;42.90;;;;;;5093664;28;21043;-87
2022/05/21 07:21:22;;;;;;;3.83;1.43;;;21.70;44.50;;;;;;5093465;28;20938;-87
2022/05/21 07:23:50;;;;;;;2.23;1.40;;;21.90;43.70;;;;;;5094618;28;20515;-87
2022/05/21 07:26:18;;;;;;;2.87;2.33;;;21.90;42.80;;;;;;5059339;28;20474;-88
2022/05/21 07:28:45;;;;;;;1.60;1.50;;;21.40;43.30;;;;;;5093706;28;20467;-88
2022/05/21 07:31:15;;;;;;;2.13;1.67;;;21.30;43.60;;;;;;5069338;28;21028;-88
2022/05/21 07:33:45;;;;;;;3.50;1.70;;;21.20;44.20;;;;;;5060893;28;20483;-88
2022/05/21 07:36:12;;;;;;;2.40;1.67;;;21.10;44.30;;;;;;5070414;28;20565;-88
2022/05/21 07:38:39;;;;;;;4.10;1.73;;;21.30;44.10;;;;;;5056063;28;20480;-87
2022/05/21 07:41:07;;;;;;;1.77;1.30;;;21.10;44.30;;;;;;5077328;28;20450;-86
2022/05/21 07:43:34;;;;;;;1.53;1.43;;;20.90;43.80;;;;;;5072691;28;20821;-87
2022/05/21 07:46:02;;;;;;;2.17;1.90;;;20.70;44.50;;;;;;5080872;28;20455;-87
2022/05/21 07:48:30;;;;;;;2.93;1.80;;;20.90;45.50;;;;;;5069279;28;20462;-87
2022/05/21 07:51:00;;;;;;;3.10;1.83;;;21.20;45.00;;;;;;5077796;28;20459;-87
2022/05/21 07:53:30;;;;;;;2.23;1.47;;;21.10;45.40;;;;;;5096839;28;20447;-88
2022/05/21 07:55:57;;;;;;;3.50;1.60;;;21.20;45.10;;;;;;5094782;28;20448;-87
2022/05/21 07:58:26;;;;;;;1.90;1.57;;;21.20;44.90;;;;;;5085800;28;20458;-86
2022/05/21 08:00:55;;;;;;;2.50;1.40;;;21.00;44.80;;;;;;5094358;28;20443;-87
2022/05/21 08:03:23;;;;;;;2.57;1.50;;;20.80;45.10;;;;;;5094226;28;20446;-87
2022/05/21 08:05:52;;;;;;;1.73;1.43;;;20.80;45.60;;;;;;5076563;28;20482;-88
2022/05/21 08:08:19;;;;;;;4.57;1.43;;;20.50;46.00;;;;;;5068856;28;20467;-88
2022/05/21 08:10:47;;;;;;;1.63;1.53;;;20.60;46.80;;;;;;5081448;28;20499;-84
2022/05/21 08:13:16;;;;;;;3.10;1.93;;;20.70;46.90;;;;;;5072199;28;20444;-85
2022/05/21 08:15:44;;;;;;;1.63;1.53;;;20.70;45.80;;;;;;5073358;28;20463;-84
2022/05/21 08:18:12;;;;;;;3.53;1.40;;;20.60;46.00;;;;;;5090238;28;20832;-84
2022/05/21 08:20:40;;;;;;;2.60;1.40;;;20.80;46.90;;;;;;5088609;28;20439;-84
2022/05/21 08:28:43;;;;;;;3.17;1.70;;;21.40;47.20;;;;;;5075703;28;20488;-86
2022/05/21 08:31:10;;;;;;;16.70;3.00;;;21.40;46.30;;;;;;5088121;28;21239;-84
2022/05/21 08:33:37;;;;;;;2.50;1.53;;;21.60;45.60;;;;;;5089797;28;20451;-83
2022/05/21 08:36:05;;;;;;;2.30;1.40;;;21.90;45.80;;;;;;5089151;28;20450;-84
2022/05/21 08:38:33;;;;;;;1.97;1.83;;;22.00;45.00;;;;;;5047637;28;20447;-85
2022/05/21 08:41:03;;;;;;;1.50;1.40;;;21.90;43.80;;;;;;5090058;28;20556;-85
2022/05/21 08:43:37;;;;;;;2.20;1.37;;;21.90;45.30;;;;;;5093099;28;20451;-82
2022/05/21 08:46:10;;;;;;;4.90;1.73;;;21.90;45.30;;;;;;5091901;28;20929;-84
2022/05/21 08:48:50;;;;;;;5.60;1.20;;;22.30;44.90;;;;;;5094049;28;21017;-84
2022/05/21 08:51:21;;;;;;;1.87;1.70;;;22.50;43.80;;;;;;5092040;28;20468;-84
2022/05/21 08:53:51;;;;;;;2.73;1.57;;;22.20;43.90;;;;;;5074453;28;20464;-84
2022/05/21 08:56:20;;;;;;;1.63;1.20;;;22.30;44.20;;;;;;5072578;28;20984;-85
2022/05/21 08:58:50;;;;;;;1.83;1.50;;;22.30;43.50;;;;;;5071842;28;20526;-85
2022/05/21 09:01:21;;;;;;;3.40;1.30;;;22.20;44.00;;;;;;5070795;28;20569;-84
2022/05/21 09:03:50;;;;;;;2.27;1.40;;;22.20;44.00;;;;;;5065584;28;20851;-87
2022/05/21 09:06:34;;;;;;;3.10;1.40;;;22.10;44.60;;;;;;5094688;28;20466;-88
2022/05/21 09:09:11;;;;;;;3.20;1.27;;;21.90;43.40;;;;;;5072123;28;20471;-87
2022/05/21 09:11:41;;;;;;;2.13;1.37;;;21.70;44.10;;;;;;5075967;28;21056;-88
2022/05/21 09:14:13;;;;;;;3.80;1.53;;;21.70;44.90;;;;;;5070331;28;20468;-87
2022/05/21 09:16:54;;;;;;;2.03;1.00;;;21.80;43.60;;;;;;5090484;28;20507;-88
2022/05/21 09:19:24;;;;;;;3.57;1.97;;;21.40;43.70;;;;;;5064136;28;21199;-88
2022/05/21 09:22:00;;;;;;;3.40;1.40;;;21.70;44.80;;;;;;5053617;28;20999;-86
2022/05/21 09:24:41;;;;;;;1.30;1.20;;;21.80;42.90;;;;;;5055473;28;20467;-88
2022/05/21 09:27:24;;;;;;;1.93;1.17;;;21.70;43.50;;;;;;5065752;28;20550;-88
2022/05/21 09:29:52;;;;;;;5.53;1.97;;;21.70;44.70;;;;;;5090683;28;20455;-89
2022/05/21 09:32:22;;;;;;;4.77;1.17;;;21.90;44.50;;;;;;5067304;28;20443;-88
2022/05/21 09:35:06;;;;;;;1.33;1.23;;;22.50;44.30;;;;;;5073298;28;21020;-86
2022/05/21 09:37:33;;;;;;;5.20;1.27;;;22.80;42.80;;;;;;5072540;28;20504;-88
2022/05/21 09:40:02;;;;;;;2.73;1.43;;;23.10;43.20;;;;;;5092407;28;20452;-87
2022/05/21 09:45:32;;;;;;;2.23;1.20;;;23.60;40.30;;;;;;5072022;28;20459;-87
2022/05/21 09:48:23;;;;;;;3.33;1.60;;;23.70;38.80;;;;;;5072182;28;20443;-90
2022/05/21 09:50:52;;;;;;;2.50;1.20;;;23.80;40.30;;;;;;5045260;28;20475;-87
2022/05/21 09:53:29;;;;;;;3.00;1.30;;;23.70;38.50;;;;;;5066189;28;20443;-87
2022/05/21 09:56:08;;;;;;;8.93;1.23;;;23.50;38.20;;;;;;5062625;28;20431;-86
2022/05/21 09:58:38;;;;;;;1.93;1.00;;;23.40;40.10;;;;;;5090949;28;20455;-87
2022/05/21 10:01:07;;;;;;;2.33;1.30;;;23.30;40.80;;;;;;5090826;28;20447;-87
2022/05/21 10:03:41;;;;;;;6.40;1.60;;;23.20;39.40;;;;;;5056666;28;20454;-86
2022/05/21 10:06:18;;;;;;;2.37;1.23;;;23.00;40.30;;;;;;5069785;28;20450;-87
2022/05/21 10:11:40;;;;;;;1.40;1.13;;;23.10;39.60;;;;;;5072438;28;21042;-88
2022/05/21 10:14:13;;;;;;;3.20;1.30;;;23.30;40.40;;;;;;5087135;28;20466;-88
2022/05/21 10:16:46;;;;;;;2.50;1.20;;;23.50;39.90;;;;;;5068841;28;20438;-88
2022/05/21 10:19:17;;;;;;;6.53;1.00;;;23.40;39.20;;;;;;5086732;28;20462;-88
2022/05/21 10:21:57;;;;;;;1.40;1.20;;;23.20;39.40;;;;;;5055339;28;20545;-88
2022/05/21 10:24:37;;;;;;;2.10;1.10;;;23.30;40.30;;;;;;5069681;28;20466;-86
2022/05/21 10:27:19;;;;;;;1.90;1.00;;;23.20;39.80;;;;;;5089079;28;20447;-87
2022/05/21 10:29:59;;;;;;;4.20;1.20;;;23.20;39.70;;;;;;5088298;28;21131;-86
2022/05/21 10:32:52;;;;;;;3.33;1.20;;;23.30;39.50;;;;;;5053988;28;20436;-85
2022/05/21 10:35:38;;;;;;;1.23;1.13;;;23.40;37.90;;;;;;5040028;28;20467;-87
2022/05/21 10:38:17;;;;;;;1.30;1.10;;;23.20;37.60;;;;;;5070019;28;20462;-86
2022/05/21 10:40:50;;;;;;;1.37;1.20;;;23.10;40.70;;;;;;5087352;28;20461;-86
2022/05/21 10:43:54;;;;;;;2.20;1.23;;;23.20;39.00;;;;;;5070916;28;20482;-86
2022/05/21 10:46:35;;;;;;;1.87;1.00;;;23.20;40.40;;;;;;5071446;28;20972;-86
2022/05/21 10:49:35;;;;;;;5.63;1.30;;;23.20;40.10;;;;;;5059001;28;20444;-87
2022/05/21 10:52:06;;;;;;;2.90;1.00;;;23.50;39.70;;;;;;5050128;28;20817;-86
2022/05/21 10:54:55;;;;;;;2.00;1.40;;;23.50;38.60;;;;;;5048356;28;20460;-85
2022/05/21 10:57:37;;;;;;;3.23;1.40;;;23.50;40.50;;;;;;5076725;28;20447;-88
2022/05/21 11:00:09;;;;;;;3.47;1.33;;;23.70;39.10;;;;;;5085969;28;20452;-87
2022/05/21 11:03:12;;;;;;;1.83;1.20;;;24.10;40.30;;;;;;5075900;28;20486;-87
2022/05/21 11:06:05;;;;;;;3.70;1.40;;;24.70;38.10;;;;;;5051579;28;20527;-87
2022/05/21 11:08:38;;;;;;;3.40;1.40;;;25.00;36.60;;;;;;5053692;28;20508;-86
2022/05/21 11:11:13;;;;;;;1.30;1.20;;;25.00;36.70;;;;;;5086086;28;20989;-86
2022/05/21 11:13:46;;;;;;;3.10;1.33;;;25.10;37.70;;;;;;5068167;28;20569;-87
2022/05/21 11:16:23;;;;;;;1.43;1.10;;;24.90;37.40;;;;;;5065427;28;20458;-89
2022/05/21 11:18:54;;;;;;;2.87;1.80;;;25.20;39.60;;;;;;5070340;28;20443;-87
2022/05/21 11:21:27;;;;;;;2.40;1.10;;;25.10;34.10;;;;;;5071803;28;20451;-87
2022/05/21 11:23:59;;;;;;;1.73;1.13;;;25.10;35.90;;;;;;5073631;28;20485;-87
2022/05/21 11:26:34;;;;;;;1.37;1.10;;;24.90;35.40;;;;;;5069719;28;20465;-87
2022/05/21 11:29:08;;;;;;;2.90;1.40;;;25.00;36.60;;;;;;5064619;28;20443;-87
2022/05/21 11:37:21;;;;;;;3.43;1.40;;;25.10;36.50;;;;;;5052428;28;21011;-87
2022/05/21 11:39:50;;;;;;;1.57;1.20;;;25.40;34.80;;;;;;5071505;28;20464;-87
2022/05/21 11:42:22;;;;;;;1.57;1.20;;;25.70;34.90;;;;;;5070837;28;20561;-87
2022/05/21 11:44:59;;;;;;;3.40;1.20;;;25.70;34.60;;;;;;5058584;28;22001;-87
2022/05/21 11:47:54;;;;;;;2.57;1.53;;;25.80;34.80;;;;;;5071581;28;20533;-87
2022/05/21 11:50:27;;;;;;;4.53;1.33;;;25.60;34.60;;;;;;5068467;28;20452;-88
2022/05/21 11:53:00;;;;;;;2.17;1.13;;;25.50;35.00;;;;;;5074057;28;20450;-88
2022/05/21 11:55:29;;;;;;;3.87;1.70;;;25.40;34.80;;;;;;5073729;28;20475;-88
2022/05/21 11:57:58;;;;;;;1.57;1.13;;;25.30;34.10;;;;;;5090204;28;20436;-87
2022/05/21 12:00:52;;;;;;;2.73;1.43;;;25.30;35.10;;;;;;5084423;28;20458;-88
2022/05/21 12:03:45;;;;;;;1.70;1.20;;;25.20;35.00;;;;;;5073914;28;20439;-89
2022/05/21 12:06:30;;;;;;;2.73;1.27;;;25.10;35.70;;;;;;5090910;28;20458;-87
2022/05/21 12:09:22;;;;;;;2.10;1.07;;;24.90;33.30;;;;;;5089300;27;20451;-87
2022/05/21 12:11:49;;;;;;;1.30;1.20;;;25.00;34.60;;;;;;5060025;28;20451;-87
2022/05/21 12:14:25;;;;;;;4.73;1.30;;;24.90;35.00;;;;;;5073337;28;20458;-86
2022/05/21 12:17:00;;;;;;;1.10;1.00;;;25.10;36.20;;;;;;5059634;28;20446;-88
2022/05/21 12:20:05;;;;;;;1.83;1.00;;;25.30;35.10;;;;;;5093571;27;20444;-90
2022/05/21 12:22:44;;;;;;;2.33;1.43;;;25.60;33.60;;;;;;5075692;28;20453;-89
2022/05/21 12:25:33;;;;;;;2.43;1.30;;;25.20;34.40;;;;;;5055255;28;20460;-89
2022/05/21 12:28:03;;;;;;;7.00;1.40;;;25.20;35.30;;;;;;5089719;28;20450;-87
2022/05/21 12:30:31;;;;;;;2.27;1.70;;;25.50;35.60;;;;;;5074013;28;20486;-88
2022/05/21 12:32:59;;;;;;;1.63;1.50;;;25.90;35.00;;;;;;5091976;28;21298;-87
2022/05/21 12:35:47;;;;;;;2.23;1.20;;;26.10;35.00;;;;;;5076277;28;21054;-86
2022/05/21 12:38:25;;;;;;;1.73;1.20;;;26.30;34.80;;;;;;5090706;28;20432;-86
2022/05/21 12:40:59;;;;;;;3.50;1.50;;;26.50;32.40;;;;;;5088879;28;20474;-87
2022/05/21 12:43:27;;;;;;;1.97;1.00;;;26.70;34.50;;;;;;5071761;28;20931;-87
2022/05/21 12:45:54;;;;;;;2.50;1.83;;;26.80;32.90;;;;;;5056833;28;20489;-87
2022/05/21 12:48:24;;;;;;;3.40;1.40;;;26.60;32.30;;;;;;5070942;28;20441;-88
2022/05/21 12:50:53;;;;;;;3.20;1.47;;;26.40;34.10;;;;;;5069095;28;21053;-87
2022/05/21 12:53:29;;;;;;;3.53;1.80;;;26.50;33.20;;;;;;5066121;28;21335;-87
2022/05/21 12:56:03;;;;;;;1.97;1.37;;;26.50;32.90;;;;;;5055726;28;20988;-88
2022/05/21 12:58:32;;;;;;;2.37;1.20;;;26.40;33.50;;;;;;5058479;28;20451;-89
2022/05/21 13:01:00;;;;;;;1.40;1.27;;;26.30;32.60;;;;;;5063820;28;20463;-88
2022/05/21 13:03:32;;;;;;;2.33;1.53;;;26.00;31.70;;;;;;5073675;28;20460;-87
2022/05/21 13:06:01;;;;;;;2.23;1.50;;;25.40;31.80;;;;;;5070288;28;20546;-88
2022/05/21 13:08:31;;;;;;;2.73;1.37;;;25.60;33.00;;;;;;5072135;28;20551;-88
2022/05/21 13:11:04;;;;;;;3.23;1.43;;;25.70;33.30;;;;;;5072229;28;20905;-88
2022/05/21 13:13:35;;;;;;;14.83;1.40;;;25.90;32.20;;;;;;5090731;28;20452;-88
2022/05/21 13:16:05;;;;;;;6.10;1.47;;;25.80;32.30;;;;;;5063079;28;20451;-87
2022/05/21 13:19:15;;;;;;;2.70;1.53;;;25.90;34.40;;;;;;5079386;28;21013;-87
2022/05/21 13:21:50;;;;;;;6.67;1.20;;;26.00;32.20;;;;;;5061247;28;20446;-87
2022/05/21 13:24:30;;;;;;;2.80;1.53;;;26.10;33.00;;;;;;5058456;28;20458;-86
2022/05/21 13:27:09;;;;;;;2.63;1.53;;;25.90;33.60;;;;;;5091814;28;20608;-86
2022/05/21 13:29:36;;;;;;;2.50;1.53;;;25.80;33.00;;;;;;5088998;28;20468;-86
2022/05/21 13:32:31;;;;;;;1.27;1.10;;;25.90;32.80;;;;;;5071070;28;20484;-86
2022/05/21 13:35:00;;;;;;;5.00;1.30;;;25.90;34.10;;;;;;5022025;28;20476;-86
2022/05/21 13:37:30;;;;;;;1.60;1.30;;;26.00;33.00;;;;;;5058546;28;20461;-87
2022/05/21 13:40:03;;;;;;;3.20;1.70;;;26.00;32.40;;;;;;5053055;28;20529;-87